EWG47B EDDL-LFMN
Flight info
| Callsign | EWG47B |
|---|---|
| Flight time | 1h 36m |
| Altitude | 35000 |
| Route | MODRU2T MODRU Z283 SOPOK DCT ROUSY DCT GTQ DCT POGOL DCT LASAT DCT MOROK DCT GILIR DCT GEVEA DCT KOGAS DCT MEDAM DCT VEVAR |
| Aircraft | A320/M-SDE3FGHIRWY/LB1 |
Departure
| Time | 2026-05-07 08:42 |
|---|---|
| Airport | Düsseldorf Airport (EDDL) |
Arrival
| Time | 2026-05-07 10:18 |
|---|---|
| Airport | Nice-Côte d'Azur Airport (LFMN) |
| Time | Latitude | Longitude | Altitude | Speed | Heading |
|---|---|---|---|---|---|
| 2026-05-07 08:17 | 51.28109 | 6.76538 | 130 ft | 0 kts | 96° |
| 2026-05-07 08:31 | 51.28109 | 6.76535 | 130 ft | 2 kts | 96° |
| 2026-05-07 08:31 | 51.28111 | 6.76493 | 146 ft | 4 kts | 90° |
| 2026-05-07 08:31 | 51.28109 | 6.76451 | 127 ft | 4 kts | 72° |
| 2026-05-07 08:32 | 51.28097 | 6.76419 | 127 ft | 4 kts | 18° |
| 2026-05-07 08:32 | 51.28091 | 6.76416 | 128 ft | 0 kts | 3° |
| 2026-05-07 08:35 | 51.28121 | 6.76420 | 127 ft | 10 kts | 5° |
| 2026-05-07 08:35 | 51.28193 | 6.76432 | 130 ft | 9 kts | 6° |
| 2026-05-07 08:36 | 51.28248 | 6.76458 | 126 ft | 8 kts | 41° |
| 2026-05-07 08:36 | 51.28289 | 6.76504 | 129 ft | 7 kts | 2° |
| 2026-05-07 08:36 | 51.28355 | 6.76501 | 126 ft | 16 kts | 41° |
| 2026-05-07 08:36 | 51.28436 | 6.76663 | 126 ft | 19 kts | 52° |
| 2026-05-07 08:37 | 51.28516 | 6.76828 | 128 ft | 18 kts | 52° |
| 2026-05-07 08:37 | 51.28585 | 6.76975 | 129 ft | 15 kts | 53° |
| 2026-05-07 08:37 | 51.28644 | 6.77099 | 130 ft | 13 kts | 53° |
| 2026-05-07 08:37 | 51.28701 | 6.77220 | 128 ft | 16 kts | 52° |
| 2026-05-07 08:38 | 51.28779 | 6.77381 | 129 ft | 19 kts | 52° |
| 2026-05-07 08:38 | 51.28859 | 6.77553 | 128 ft | 20 kts | 53° |
| 2026-05-07 08:38 | 51.28926 | 6.77691 | 130 ft | 14 kts | 52° |
| 2026-05-07 08:38 | 51.28979 | 6.77803 | 126 ft | 12 kts | 53° |
| 2026-05-07 08:39 | 51.29023 | 6.77896 | 127 ft | 10 kts | 53° |
| 2026-05-07 08:39 | 51.29069 | 6.77992 | 126 ft | 14 kts | 53° |
| 2026-05-07 08:39 | 51.29119 | 6.78099 | 133 ft | 10 kts | 53° |
| 2026-05-07 08:39 | 51.29165 | 6.78187 | 136 ft | 9 kts | 40° |
| 2026-05-07 08:40 | 51.29207 | 6.78212 | 137 ft | 5 kts | 5° |
| 2026-05-07 08:40 | 51.29237 | 6.78204 | 138 ft | 7 kts | 343° |
| 2026-05-07 08:40 | 51.29303 | 6.78136 | 142 ft | 13 kts | 323° |
| 2026-05-07 08:40 | 51.29326 | 6.78065 | 143 ft | 7 kts | 244° |
| 2026-05-07 08:41 | 51.29316 | 6.78043 | 142 ft | 0 kts | 233° |
| 2026-05-07 08:41 | 51.29255 | 6.77914 | 139 ft | 47 kts | 232° |
| 2026-05-07 08:41 | 51.28889 | 6.77151 | 129 ft | 121 kts | 232° |
| 2026-05-07 08:41 | 51.28272 | 6.75858 | 245 ft | 164 kts | 234° |
| 2026-05-07 08:42 | 51.27560 | 6.74357 | 846 ft | 176 kts | 233° |
| 2026-05-07 08:42 | 51.26813 | 6.72797 | 1634 ft | 179 kts | 236° |
| 2026-05-07 08:42 | 51.26038 | 6.71116 | 2057 ft | 198 kts | 236° |
| 2026-05-07 08:42 | 51.25182 | 6.69247 | 2364 ft | 219 kts | 236° |
| 2026-05-07 08:43 | 51.24263 | 6.67252 | 3139 ft | 224 kts | 235° |
| 2026-05-07 08:43 | 51.23499 | 6.65058 | 3898 ft | 224 kts | 262° |
| 2026-05-07 08:43 | 51.23680 | 6.62643 | 4448 ft | 229 kts | 301° |
| 2026-05-07 08:43 | 51.24721 | 6.60614 | 4795 ft | 248 kts | 320° |
| 2026-05-07 08:44 | 51.26087 | 6.58875 | 5439 ft | 259 kts | 326° |
| 2026-05-07 08:44 | 51.27569 | 6.57188 | 6282 ft | 263 kts | 326° |
| 2026-05-07 08:44 | 51.29073 | 6.55478 | 7079 ft | 268 kts | 325° |
| 2026-05-07 08:44 | 51.30582 | 6.53695 | 7868 ft | 272 kts | 322° |
| 2026-05-07 08:45 | 51.31828 | 6.51396 | 8617 ft | 279 kts | 299° |
| 2026-05-07 08:45 | 51.32373 | 6.48410 | 9397 ft | 285 kts | 273° |
| 2026-05-07 08:45 | 51.32031 | 6.45280 | 10135 ft | 291 kts | 246° |
| 2026-05-07 08:45 | 51.30822 | 6.42679 | 10847 ft | 296 kts | 221° |
| 2026-05-07 08:46 | 51.29133 | 6.40598 | 11125 ft | 318 kts | 217° |
| 2026-05-07 08:46 | 51.27282 | 6.38436 | 11295 ft | 341 kts | 217° |
| 2026-05-07 08:46 | 51.25289 | 6.36148 | 11446 ft | 362 kts | 217° |
| 2026-05-07 08:46 | 51.23214 | 6.33779 | 11934 ft | 371 kts | 217° |
| 2026-05-07 08:47 | 51.21104 | 6.31361 | 12593 ft | 374 kts | 217° |
| 2026-05-07 08:47 | 51.18984 | 6.28919 | 13265 ft | 377 kts | 217° |
| 2026-05-07 08:47 | 51.16852 | 6.26454 | 13924 ft | 380 kts | 217° |
| 2026-05-07 08:47 | 51.14704 | 6.23967 | 14514 ft | 383 kts | 217° |
| 2026-05-07 08:48 | 51.12537 | 6.21458 | 15098 ft | 386 kts | 217° |
| 2026-05-07 08:48 | 51.10355 | 6.18930 | 15682 ft | 389 kts | 217° |
| 2026-05-07 08:48 | 51.08155 | 6.16383 | 16255 ft | 392 kts | 217° |
| 2026-05-07 08:48 | 51.05940 | 6.13827 | 16859 ft | 395 kts | 217° |
| 2026-05-07 08:49 | 51.03703 | 6.11252 | 17445 ft | 398 kts | 217° |
| 2026-05-07 08:49 | 51.01445 | 6.08668 | 18012 ft | 401 kts | 216° |
| 2026-05-07 08:49 | 50.99123 | 6.06186 | 18534 ft | 404 kts | 214° |
| 2026-05-07 08:49 | 50.96731 | 6.03799 | 19008 ft | 407 kts | 212° |
| 2026-05-07 08:50 | 50.94295 | 6.01465 | 19483 ft | 410 kts | 211° |
| 2026-05-07 08:50 | 50.91805 | 5.99234 | 19957 ft | 412 kts | 210° |
| 2026-05-07 08:50 | 50.89260 | 5.97094 | 20413 ft | 415 kts | 208° |
| 2026-05-07 08:50 | 50.86686 | 5.94996 | 20858 ft | 417 kts | 208° |
| 2026-05-07 08:51 | 50.84127 | 5.92915 | 21274 ft | 420 kts | 208° |
| 2026-05-07 08:51 | 50.81496 | 5.90750 | 21717 ft | 422 kts | 209° |
| 2026-05-07 08:51 | 50.78929 | 5.88584 | 22120 ft | 424 kts | 210° |
| 2026-05-07 08:51 | 50.76330 | 5.86351 | 22514 ft | 427 kts | 210° |
| 2026-05-07 08:52 | 50.73722 | 5.84086 | 22898 ft | 429 kts | 210° |
| 2026-05-07 08:52 | 50.71104 | 5.81804 | 23272 ft | 431 kts | 210° |
| 2026-05-07 08:52 | 50.68467 | 5.79508 | 23636 ft | 433 kts | 210° |
| 2026-05-07 08:52 | 50.66639 | 5.77924 | 23855 ft | 435 kts | 210° |
| 2026-05-07 08:53 | 50.63976 | 5.75630 | 24154 ft | 437 kts | 209° |
| 2026-05-07 08:53 | 50.61198 | 5.73646 | 24451 ft | 440 kts | 200° |
| 2026-05-07 08:53 | 50.58267 | 5.72412 | 24744 ft | 444 kts | 191° |
| 2026-05-07 08:53 | 50.55183 | 5.71948 | 25033 ft | 447 kts | 181° |
| 2026-05-07 08:54 | 50.52060 | 5.72271 | 25314 ft | 450 kts | 174° |
| 2026-05-07 08:54 | 50.48941 | 5.72876 | 25577 ft | 452 kts | 174° |
| 2026-05-07 08:54 | 50.45809 | 5.73479 | 25839 ft | 454 kts | 174° |
| 2026-05-07 08:54 | 50.42660 | 5.74080 | 26108 ft | 456 kts | 174° |
| 2026-05-07 08:55 | 50.39504 | 5.74679 | 26362 ft | 458 kts | 174° |
| 2026-05-07 08:55 | 50.36337 | 5.75282 | 26601 ft | 459 kts | 174° |
| 2026-05-07 08:55 | 50.33158 | 5.75892 | 26843 ft | 461 kts | 174° |
| 2026-05-07 08:55 | 50.29966 | 5.76503 | 27073 ft | 462 kts | 174° |
| 2026-05-07 08:56 | 50.26804 | 5.77109 | 27283 ft | 464 kts | 173° |
| 2026-05-07 08:56 | 50.23636 | 5.78123 | 27535 ft | 465 kts | 165° |
| 2026-05-07 08:56 | 50.20525 | 5.79523 | 27835 ft | 465 kts | 164° |
| 2026-05-07 08:56 | 50.17418 | 5.80911 | 28134 ft | 464 kts | 165° |
| 2026-05-07 08:57 | 50.14311 | 5.82288 | 28459 ft | 463 kts | 165° |
| 2026-05-07 08:57 | 50.11209 | 5.83661 | 28771 ft | 463 kts | 165° |
| 2026-05-07 08:57 | 50.08111 | 5.85030 | 29094 ft | 462 kts | 165° |
| 2026-05-07 08:57 | 50.05018 | 5.86400 | 29411 ft | 462 kts | 165° |
| 2026-05-07 08:58 | 50.01926 | 5.87769 | 29715 ft | 461 kts | 164° |
| 2026-05-07 08:58 | 49.98832 | 5.89141 | 30041 ft | 461 kts | 164° |
| 2026-05-07 08:58 | 49.95789 | 5.90486 | 30326 ft | 460 kts | 164° |
| 2026-05-07 08:58 | 49.92709 | 5.91841 | 30596 ft | 460 kts | 164° |
| 2026-05-07 08:59 | 49.89630 | 5.93195 | 30860 ft | 459 kts | 164° |
| 2026-05-07 08:59 | 49.86556 | 5.94542 | 31128 ft | 459 kts | 164° |
| 2026-05-07 08:59 | 49.83484 | 5.95891 | 31383 ft | 459 kts | 164° |
| 2026-05-07 08:59 | 49.80377 | 5.97259 | 31651 ft | 458 kts | 164° |
| 2026-05-07 09:00 | 49.77348 | 5.98586 | 31915 ft | 458 kts | 165° |
| 2026-05-07 09:00 | 49.74282 | 5.99924 | 32191 ft | 457 kts | 165° |
| 2026-05-07 09:00 | 49.71220 | 6.01259 | 32484 ft | 457 kts | 165° |
| 2026-05-07 09:00 | 49.68167 | 6.02598 | 32764 ft | 456 kts | 165° |
| 2026-05-07 09:01 | 49.65110 | 6.03932 | 33038 ft | 455 kts | 165° |
| 2026-05-07 09:01 | 49.62062 | 6.05254 | 33313 ft | 455 kts | 165° |
| 2026-05-07 09:01 | 49.59014 | 6.06575 | 33585 ft | 454 kts | 165° |
| 2026-05-07 09:01 | 49.55973 | 6.07894 | 33843 ft | 454 kts | 165° |
| 2026-05-07 09:02 | 49.52931 | 6.09211 | 34092 ft | 454 kts | 165° |
| 2026-05-07 09:02 | 49.49910 | 6.10652 | 34313 ft | 454 kts | 159° |
| 2026-05-07 09:02 | 49.47057 | 6.12735 | 34522 ft | 454 kts | 150° |
| 2026-05-07 09:02 | 49.44470 | 6.15425 | 34726 ft | 455 kts | 142° |
| 2026-05-07 09:03 | 49.42007 | 6.18474 | 34924 ft | 455 kts | 142° |
| 2026-05-07 09:03 | 49.39538 | 6.21528 | 35016 ft | 457 kts | 142° |
| 2026-05-07 09:03 | 49.34560 | 6.27680 | 35033 ft | 460 kts | 142° |
| 2026-05-07 09:04 | 49.29564 | 6.33852 | 35038 ft | 461 kts | 142° |
| 2026-05-07 09:04 | 49.24558 | 6.40013 | 35037 ft | 461 kts | 142° |
| 2026-05-07 09:05 | 49.19547 | 6.46151 | 35044 ft | 461 kts | 142° |
| 2026-05-07 09:05 | 49.14535 | 6.52292 | 35049 ft | 462 kts | 142° |
| 2026-05-07 09:06 | 49.09516 | 6.58423 | 35031 ft | 462 kts | 142° |
| 2026-05-07 09:06 | 49.04484 | 6.64537 | 35041 ft | 462 kts | 142° |
| 2026-05-07 09:07 | 48.99012 | 6.69399 | 35043 ft | 458 kts | 161° |
| 2026-05-07 09:07 | 48.92820 | 6.71322 | 35042 ft | 454 kts | 180° |
| 2026-05-07 09:08 | 48.86513 | 6.71131 | 35030 ft | 453 kts | 183° |
| 2026-05-07 09:08 | 48.80206 | 6.70892 | 35033 ft | 453 kts | 183° |
| 2026-05-07 09:09 | 48.73901 | 6.70650 | 35030 ft | 454 kts | 183° |
| 2026-05-07 09:09 | 48.67589 | 6.70398 | 35037 ft | 454 kts | 183° |
| 2026-05-07 09:10 | 48.61269 | 6.70161 | 35036 ft | 454 kts | 183° |
| 2026-05-07 09:10 | 48.54959 | 6.69919 | 35040 ft | 454 kts | 183° |
| 2026-05-07 09:11 | 48.48639 | 6.69673 | 35043 ft | 454 kts | 183° |
| 2026-05-07 09:11 | 48.42319 | 6.69430 | 35038 ft | 454 kts | 183° |
| 2026-05-07 09:12 | 48.36023 | 6.69193 | 35048 ft | 454 kts | 183° |
| 2026-05-07 09:12 | 48.29703 | 6.68955 | 35058 ft | 454 kts | 183° |
| 2026-05-07 09:13 | 48.23383 | 6.68707 | 35054 ft | 454 kts | 183° |
| 2026-05-07 09:13 | 48.17065 | 6.68458 | 35064 ft | 454 kts | 183° |
| 2026-05-07 09:14 | 48.10749 | 6.68210 | 35064 ft | 454 kts | 183° |
| 2026-05-07 09:14 | 48.04431 | 6.67969 | 35065 ft | 454 kts | 183° |
| 2026-05-07 09:15 | 47.98115 | 6.67734 | 35064 ft | 454 kts | 183° |
| 2026-05-07 09:15 | 47.91799 | 6.67499 | 35064 ft | 454 kts | 183° |
| 2026-05-07 09:16 | 47.85482 | 6.67268 | 35062 ft | 454 kts | 183° |
| 2026-05-07 09:16 | 47.79163 | 6.67029 | 35054 ft | 454 kts | 184° |
| 2026-05-07 09:17 | 47.72841 | 6.66792 | 35057 ft | 454 kts | 184° |
| 2026-05-07 09:17 | 47.66527 | 6.66556 | 35060 ft | 454 kts | 184° |
| 2026-05-07 09:18 | 47.60201 | 6.66319 | 35048 ft | 454 kts | 184° |
| 2026-05-07 09:18 | 47.53879 | 6.66082 | 35051 ft | 454 kts | 184° |
| 2026-05-07 09:19 | 47.47555 | 6.65845 | 35054 ft | 455 kts | 184° |
| 2026-05-07 09:19 | 47.41337 | 6.64612 | 35054 ft | 449 kts | 200° |
| 2026-05-07 09:20 | 47.35795 | 6.60563 | 35045 ft | 443 kts | 218° |
| 2026-05-07 09:20 | 47.31077 | 6.54760 | 35047 ft | 442 kts | 222° |
| 2026-05-07 09:21 | 47.26385 | 6.48882 | 35044 ft | 442 kts | 222° |
| 2026-05-07 09:21 | 47.21692 | 6.43019 | 35053 ft | 443 kts | 222° |
| 2026-05-07 09:22 | 47.16998 | 6.37165 | 35053 ft | 442 kts | 222° |
| 2026-05-07 09:22 | 47.12333 | 6.31359 | 35057 ft | 442 kts | 222° |
| 2026-05-07 09:23 | 47.07325 | 6.26021 | 35059 ft | 445 kts | 209° |
| 2026-05-07 09:23 | 47.01406 | 6.23272 | 35058 ft | 452 kts | 189° |
| 2026-05-07 09:24 | 46.95129 | 6.22427 | 35045 ft | 453 kts | 188° |
| 2026-05-07 09:24 | 46.88888 | 6.21593 | 35044 ft | 453 kts | 188° |
| 2026-05-07 09:25 | 46.82604 | 6.20752 | 35044 ft | 453 kts | 188° |
| 2026-05-07 09:25 | 46.76318 | 6.19912 | 35034 ft | 453 kts | 188° |
| 2026-05-07 09:26 | 46.70035 | 6.19077 | 35039 ft | 453 kts | 188° |
| 2026-05-07 09:26 | 46.63755 | 6.18257 | 35040 ft | 453 kts | 188° |
| 2026-05-07 09:27 | 46.57471 | 6.17431 | 35043 ft | 453 kts | 188° |
| 2026-05-07 09:28 | 46.48051 | 6.16179 | 35036 ft | 453 kts | 188° |
| 2026-05-07 09:28 | 46.41770 | 6.15356 | 35037 ft | 453 kts | 188° |
| 2026-05-07 09:29 | 46.35487 | 6.14534 | 35031 ft | 453 kts | 188° |
| 2026-05-07 09:29 | 46.29240 | 6.13756 | 35038 ft | 454 kts | 185° |
| 2026-05-07 09:30 | 46.22936 | 6.14830 | 35035 ft | 462 kts | 167° |
| 2026-05-07 09:30 | 46.16900 | 6.18185 | 35028 ft | 465 kts | 161° |
| 2026-05-07 09:31 | 46.10893 | 6.21691 | 35027 ft | 466 kts | 161° |
| 2026-05-07 09:31 | 46.04873 | 6.25184 | 35031 ft | 466 kts | 161° |
| 2026-05-07 09:32 | 45.98859 | 6.28665 | 35018 ft | 466 kts | 162° |
| 2026-05-07 09:32 | 45.93851 | 6.31568 | 35019 ft | 467 kts | 162° |
| 2026-05-07 09:33 | 45.87828 | 6.35050 | 35016 ft | 467 kts | 162° |
| 2026-05-07 09:33 | 45.81819 | 6.38599 | 35017 ft | 469 kts | 157° |
| 2026-05-07 09:34 | 45.76289 | 6.43715 | 35011 ft | 475 kts | 148° |
| 2026-05-07 09:34 | 45.70909 | 6.49208 | 35014 ft | 475 kts | 148° |
| 2026-05-07 09:35 | 45.65511 | 6.54687 | 35014 ft | 476 kts | 148° |
| 2026-05-07 09:35 | 45.60104 | 6.60166 | 35035 ft | 476 kts | 148° |
| 2026-05-07 09:36 | 45.54699 | 6.65631 | 35017 ft | 476 kts | 149° |
| 2026-05-07 09:36 | 45.49278 | 6.71102 | 35036 ft | 477 kts | 149° |
| 2026-05-07 09:37 | 45.43858 | 6.76554 | 35043 ft | 477 kts | 149° |
| 2026-05-07 09:37 | 45.38429 | 6.82001 | 35051 ft | 478 kts | 149° |
| 2026-05-07 09:38 | 45.33036 | 6.87416 | 35044 ft | 478 kts | 149° |
| 2026-05-07 09:38 | 45.27421 | 6.92361 | 35026 ft | 470 kts | 161° |
| 2026-05-07 09:39 | 45.21223 | 6.94836 | 35016 ft | 458 kts | 179° |
| 2026-05-07 09:39 | 45.14901 | 6.95786 | 34990 ft | 457 kts | 179° |
| 2026-05-07 09:40 | 45.08579 | 6.96789 | 35013 ft | 457 kts | 179° |
| 2026-05-07 09:40 | 45.02264 | 6.97800 | 35020 ft | 456 kts | 179° |
| 2026-05-07 09:41 | 44.95948 | 6.98781 | 35002 ft | 456 kts | 179° |
| 2026-05-07 09:41 | 44.89646 | 6.99753 | 35009 ft | 455 kts | 179° |
| 2026-05-07 09:41 | 44.86495 | 7.00239 | 34797 ft | 455 kts | 179° |
| 2026-05-07 09:42 | 44.83354 | 7.00731 | 34569 ft | 454 kts | 180° |
| 2026-05-07 09:42 | 44.80251 | 7.01216 | 34339 ft | 454 kts | 179° |
| 2026-05-07 09:42 | 44.77073 | 7.01798 | 34070 ft | 455 kts | 178° |
| 2026-05-07 09:42 | 44.73946 | 7.02499 | 33808 ft | 455 kts | 176° |
| 2026-05-07 09:43 | 44.70830 | 7.03279 | 33537 ft | 456 kts | 176° |
| 2026-05-07 09:43 | 44.67704 | 7.04089 | 33265 ft | 456 kts | 176° |
| 2026-05-07 09:43 | 44.64625 | 7.04884 | 32996 ft | 456 kts | 176° |
| 2026-05-07 09:43 | 44.61498 | 7.05670 | 32726 ft | 456 kts | 176° |
| 2026-05-07 09:44 | 44.58370 | 7.06434 | 32459 ft | 457 kts | 176° |
| 2026-05-07 09:44 | 44.55188 | 7.07197 | 32190 ft | 457 kts | 176° |
| 2026-05-07 09:44 | 44.52050 | 7.07931 | 31929 ft | 458 kts | 176° |
| 2026-05-07 09:44 | 44.48898 | 7.08658 | 31673 ft | 458 kts | 176° |
| 2026-05-07 09:45 | 44.45792 | 7.09376 | 30814 ft | 461 kts | 176° |
| 2026-05-07 09:45 | 44.42616 | 7.10117 | 29539 ft | 460 kts | 176° |
| 2026-05-07 09:45 | 44.39496 | 7.10859 | 28395 ft | 452 kts | 175° |
| 2026-05-07 09:45 | 44.36383 | 7.11603 | 27247 ft | 454 kts | 175° |
| 2026-05-07 09:46 | 44.33239 | 7.12346 | 25986 ft | 461 kts | 175° |
| 2026-05-07 09:46 | 44.30053 | 7.13093 | 24766 ft | 466 kts | 174° |
| 2026-05-07 09:46 | 44.26839 | 7.13843 | 23589 ft | 470 kts | 174° |
| 2026-05-07 09:46 | 44.23605 | 7.14603 | 22478 ft | 470 kts | 172° |
| 2026-05-07 09:47 | 44.20457 | 7.15758 | 21695 ft | 468 kts | 163° |
| 2026-05-07 09:47 | 44.17454 | 7.17485 | 21350 ft | 466 kts | 159° |
| 2026-05-07 09:47 | 44.14471 | 7.19257 | 21098 ft | 465 kts | 160° |
| 2026-05-07 09:47 | 44.11494 | 7.21003 | 20845 ft | 463 kts | 160° |
| 2026-05-07 09:48 | 44.08533 | 7.22727 | 20586 ft | 461 kts | 160° |
| 2026-05-07 09:48 | 44.05586 | 7.24440 | 20324 ft | 456 kts | 160° |
| 2026-05-07 09:48 | 44.02706 | 7.26115 | 20071 ft | 440 kts | 160° |
| 2026-05-07 09:48 | 43.99937 | 7.27727 | 19814 ft | 424 kts | 160° |
| 2026-05-07 09:49 | 43.97261 | 7.29287 | 19549 ft | 411 kts | 160° |
| 2026-05-07 09:49 | 43.94693 | 7.30783 | 19322 ft | 400 kts | 160° |
| 2026-05-07 09:49 | 43.92164 | 7.32259 | 19078 ft | 390 kts | 160° |
| 2026-05-07 09:49 | 43.89693 | 7.33700 | 18838 ft | 380 kts | 160° |
| 2026-05-07 09:50 | 43.87278 | 7.35109 | 18599 ft | 372 kts | 160° |
| 2026-05-07 09:50 | 43.84922 | 7.36511 | 18365 ft | 365 kts | 156° |
| 2026-05-07 09:50 | 43.82721 | 7.38205 | 18102 ft | 359 kts | 149° |
| 2026-05-07 09:50 | 43.80716 | 7.40240 | 17821 ft | 354 kts | 143° |
| 2026-05-07 09:51 | 43.78821 | 7.42375 | 17562 ft | 349 kts | 143° |
| 2026-05-07 09:51 | 43.76945 | 7.44483 | 17282 ft | 346 kts | 143° |
| 2026-05-07 09:51 | 43.75075 | 7.46573 | 17022 ft | 344 kts | 143° |
| 2026-05-07 09:51 | 43.73214 | 7.48650 | 16761 ft | 343 kts | 143° |
| 2026-05-07 09:52 | 43.71370 | 7.50732 | 16506 ft | 342 kts | 140° |
| 2026-05-07 09:52 | 43.69692 | 7.53054 | 16250 ft | 342 kts | 132° |
| 2026-05-07 09:52 | 43.68299 | 7.55557 | 15998 ft | 341 kts | 124° |
| 2026-05-07 09:52 | 43.67105 | 7.58386 | 15755 ft | 341 kts | 117° |
| 2026-05-07 09:53 | 43.66178 | 7.61399 | 15502 ft | 341 kts | 110° |
| 2026-05-07 09:53 | 43.65392 | 7.64489 | 15256 ft | 341 kts | 110° |
| 2026-05-07 09:53 | 43.64602 | 7.67569 | 15009 ft | 339 kts | 110° |
| 2026-05-07 09:53 | 43.63813 | 7.70633 | 14768 ft | 338 kts | 110° |
| 2026-05-07 09:54 | 43.63028 | 7.73686 | 14520 ft | 337 kts | 110° |
| 2026-05-07 09:54 | 43.62243 | 7.76727 | 14277 ft | 335 kts | 110° |
| 2026-05-07 09:54 | 43.61462 | 7.79750 | 14043 ft | 334 kts | 110° |
| 2026-05-07 09:54 | 43.60680 | 7.82764 | 13802 ft | 333 kts | 110° |
| 2026-05-07 09:55 | 43.59909 | 7.85727 | 13541 ft | 331 kts | 110° |
| 2026-05-07 09:55 | 43.59139 | 7.88690 | 13274 ft | 326 kts | 110° |
| 2026-05-07 09:55 | 43.58379 | 7.91611 | 13010 ft | 320 kts | 110° |
| 2026-05-07 09:55 | 43.57634 | 7.94480 | 12745 ft | 315 kts | 110° |
| 2026-05-07 09:56 | 43.56898 | 7.97300 | 12484 ft | 310 kts | 112° |
| 2026-05-07 09:56 | 43.55894 | 7.99883 | 12231 ft | 303 kts | 128° |
| 2026-05-07 09:56 | 43.54504 | 8.02016 | 11963 ft | 295 kts | 140° |
| 2026-05-07 09:56 | 43.52880 | 8.03689 | 11710 ft | 288 kts | 152° |
| 2026-05-07 09:57 | 43.51091 | 8.04854 | 11464 ft | 281 kts | 164° |
| 2026-05-07 09:57 | 43.49213 | 8.05469 | 11214 ft | 274 kts | 176° |
| 2026-05-07 09:57 | 43.47332 | 8.05539 | 10968 ft | 268 kts | 187° |
| 2026-05-07 09:57 | 43.45513 | 8.05099 | 10720 ft | 264 kts | 199° |
| 2026-05-07 09:58 | 43.43814 | 8.04184 | 10471 ft | 261 kts | 210° |
| 2026-05-07 09:58 | 43.42298 | 8.02846 | 10229 ft | 258 kts | 220° |
| 2026-05-07 09:58 | 43.41011 | 8.01149 | 10056 ft | 256 kts | 231° |
| 2026-05-07 09:58 | 43.39987 | 7.99157 | 10010 ft | 255 kts | 241° |
| 2026-05-07 09:59 | 43.39250 | 7.96939 | 10019 ft | 255 kts | 251° |
| 2026-05-07 09:59 | 43.38831 | 7.94571 | 10015 ft | 256 kts | 262° |
| 2026-05-07 09:59 | 43.38747 | 7.92135 | 10016 ft | 256 kts | 272° |
| 2026-05-07 09:59 | 43.38993 | 7.89713 | 10015 ft | 257 kts | 283° |
| 2026-05-07 10:00 | 43.39579 | 7.87394 | 10014 ft | 258 kts | 294° |
| 2026-05-07 10:00 | 43.40423 | 7.85253 | 10016 ft | 258 kts | 298° |
| 2026-05-07 10:00 | 43.41318 | 7.83074 | 10018 ft | 266 kts | 298° |
| 2026-05-07 10:00 | 43.42234 | 7.80839 | 10017 ft | 269 kts | 298° |
| 2026-05-07 10:01 | 43.43167 | 7.78561 | 10016 ft | 270 kts | 298° |
| 2026-05-07 10:01 | 43.44089 | 7.76313 | 10014 ft | 270 kts | 298° |
| 2026-05-07 10:01 | 43.44997 | 7.74091 | 10014 ft | 270 kts | 298° |
| 2026-05-07 10:01 | 43.45916 | 7.71839 | 10014 ft | 270 kts | 298° |
| 2026-05-07 10:02 | 43.46769 | 7.69506 | 9973 ft | 270 kts | 287° |
| 2026-05-07 10:02 | 43.47074 | 7.66986 | 9853 ft | 267 kts | 268° |
| 2026-05-07 10:02 | 43.46752 | 7.64489 | 9721 ft | 266 kts | 250° |
| 2026-05-07 10:02 | 43.45868 | 7.62296 | 9589 ft | 266 kts | 231° |
| 2026-05-07 10:03 | 43.44504 | 7.60572 | 9462 ft | 268 kts | 219° |
| 2026-05-07 10:03 | 43.43062 | 7.58957 | 9391 ft | 267 kts | 223° |
| 2026-05-07 10:03 | 43.41692 | 7.57227 | 9280 ft | 267 kts | 226° |
| 2026-05-07 10:03 | 43.40398 | 7.55405 | 9135 ft | 265 kts | 229° |
| 2026-05-07 10:04 | 43.39184 | 7.53500 | 8984 ft | 264 kts | 232° |
| 2026-05-07 10:04 | 43.38049 | 7.51519 | 8830 ft | 264 kts | 234° |
| 2026-05-07 10:04 | 43.36987 | 7.49463 | 8678 ft | 264 kts | 237° |
| 2026-05-07 10:04 | 43.36005 | 7.47336 | 8529 ft | 261 kts | 240° |
| 2026-05-07 10:05 | 43.35112 | 7.45161 | 8379 ft | 261 kts | 243° |
| 2026-05-07 10:05 | 43.34304 | 7.42934 | 8217 ft | 258 kts | 246° |
| 2026-05-07 10:05 | 43.33585 | 7.40673 | 8076 ft | 259 kts | 248° |
| 2026-05-07 10:05 | 43.32949 | 7.38358 | 7926 ft | 258 kts | 252° |
| 2026-05-07 10:06 | 43.32410 | 7.36040 | 7781 ft | 260 kts | 254° |
| 2026-05-07 10:06 | 43.31952 | 7.33640 | 7627 ft | 258 kts | 257° |
| 2026-05-07 10:06 | 43.31587 | 7.31228 | 7481 ft | 255 kts | 260° |
| 2026-05-07 10:06 | 43.31311 | 7.28804 | 7331 ft | 258 kts | 263° |
| 2026-05-07 10:07 | 43.31122 | 7.26380 | 7181 ft | 254 kts | 265° |
| 2026-05-07 10:07 | 43.31023 | 7.23960 | 7035 ft | 252 kts | 268° |
| 2026-05-07 10:07 | 43.31013 | 7.21546 | 6888 ft | 255 kts | 271° |
| 2026-05-07 10:07 | 43.31090 | 7.19114 | 6745 ft | 254 kts | 274° |
| 2026-05-07 10:08 | 43.31253 | 7.16722 | 6594 ft | 252 kts | 276° |
| 2026-05-07 10:08 | 43.31501 | 7.14340 | 6451 ft | 252 kts | 279° |
| 2026-05-07 10:08 | 43.31841 | 7.11960 | 6300 ft | 254 kts | 282° |
| 2026-05-07 10:08 | 43.32271 | 7.09605 | 6141 ft | 254 kts | 285° |
| 2026-05-07 10:09 | 43.32787 | 7.07281 | 5994 ft | 254 kts | 288° |
| 2026-05-07 10:09 | 43.33383 | 7.05003 | 5854 ft | 253 kts | 290° |
| 2026-05-07 10:09 | 43.34053 | 7.02788 | 5705 ft | 246 kts | 292° |
| 2026-05-07 10:09 | 43.34768 | 7.00714 | 5602 ft | 233 kts | 295° |
| 2026-05-07 10:10 | 43.35501 | 6.98819 | 5501 ft | 221 kts | 298° |
| 2026-05-07 10:10 | 43.36262 | 6.97050 | 5407 ft | 210 kts | 301° |
| 2026-05-07 10:10 | 43.37057 | 6.95369 | 5321 ft | 210 kts | 303° |
| 2026-05-07 10:10 | 43.37900 | 6.93729 | 5230 ft | 210 kts | 305° |
| 2026-05-07 10:11 | 43.38786 | 6.92142 | 5136 ft | 209 kts | 307° |
| 2026-05-07 10:11 | 43.39800 | 6.90729 | 5042 ft | 210 kts | 323° |
| 2026-05-07 10:11 | 43.41159 | 6.90003 | 4941 ft | 214 kts | 349° |
| 2026-05-07 10:11 | 43.42643 | 6.90184 | 4842 ft | 219 kts | 17° |
| 2026-05-07 10:12 | 43.43940 | 6.91278 | 4734 ft | 222 kts | 43° |
| 2026-05-07 10:12 | 43.45026 | 6.92803 | 4629 ft | 223 kts | 44° |
| 2026-05-07 10:12 | 43.46118 | 6.94326 | 4510 ft | 223 kts | 43° |
| 2026-05-07 10:12 | 43.47215 | 6.95827 | 4375 ft | 222 kts | 43° |
| 2026-05-07 10:13 | 43.48314 | 6.97324 | 4264 ft | 222 kts | 43° |
| 2026-05-07 10:13 | 43.49039 | 6.98312 | 4181 ft | 221 kts | 43° |
| 2026-05-07 10:13 | 43.50132 | 6.99802 | 4088 ft | 221 kts | 43° |
| 2026-05-07 10:13 | 43.51225 | 7.01293 | 3849 ft | 220 kts | 43° |
| 2026-05-07 10:14 | 43.52311 | 7.02775 | 3570 ft | 219 kts | 44° |
| 2026-05-07 10:14 | 43.53395 | 7.04256 | 3284 ft | 218 kts | 44° |
| 2026-05-07 10:14 | 43.54473 | 7.05728 | 2993 ft | 217 kts | 44° |
| 2026-05-07 10:14 | 43.55545 | 7.07194 | 2700 ft | 216 kts | 44° |
| 2026-05-07 10:15 | 43.56595 | 7.08630 | 2409 ft | 213 kts | 44° |
| 2026-05-07 10:15 | 43.57619 | 7.10032 | 2157 ft | 203 kts | 44° |
| 2026-05-07 10:15 | 43.58598 | 7.11372 | 1861 ft | 193 kts | 45° |
| 2026-05-07 10:15 | 43.59525 | 7.12642 | 1612 ft | 182 kts | 45° |
| 2026-05-07 10:16 | 43.60388 | 7.13824 | 1365 ft | 166 kts | 45° |
| 2026-05-07 10:16 | 43.61183 | 7.14913 | 1161 ft | 156 kts | 48° |
| 2026-05-07 10:16 | 43.61939 | 7.15951 | 955 ft | 152 kts | 48° |
| 2026-05-07 10:16 | 43.62680 | 7.16967 | 753 ft | 149 kts | 46° |
| 2026-05-07 10:17 | 43.63415 | 7.17977 | 556 ft | 150 kts | 47° |
| 2026-05-07 10:17 | 43.64152 | 7.18990 | 360 ft | 149 kts | 47° |
| 2026-05-07 10:17 | 43.64895 | 7.20000 | 149 ft | 150 kts | 48° |
| 2026-05-07 10:17 | 43.65615 | 7.21003 | 28 ft | 137 kts | 45° |
| 2026-05-07 10:18 | 43.66181 | 7.21782 | 21 ft | 90 kts | 45° |
| 2026-05-07 10:18 | 43.66485 | 7.22198 | 22 ft | 38 kts | 45° |
| 2026-05-07 10:18 | 43.66656 | 7.22433 | 20 ft | 16 kts | 45° |
| 2026-05-07 10:18 | 43.66753 | 7.22475 | 22 ft | 15 kts | 328° |
| 2026-05-07 10:19 | 43.66811 | 7.22396 | 21 ft | 6 kts | 312° |
| 2026-05-07 10:19 | 43.66824 | 7.22353 | 21 ft | 4 kts | 257° |
| 2026-05-07 10:19 | 43.66799 | 7.22308 | 21 ft | 13 kts | 226° |
| 2026-05-07 10:19 | 43.66698 | 7.22169 | 21 ft | 24 kts | 225° |
| 2026-05-07 10:20 | 43.66576 | 7.22002 | 21 ft | 25 kts | 225° |
| 2026-05-07 10:20 | 43.66447 | 7.21825 | 21 ft | 27 kts | 224° |
| 2026-05-07 10:20 | 43.66357 | 7.21703 | 21 ft | 13 kts | 225° |
| 2026-05-07 10:20 | 43.66328 | 7.21597 | 21 ft | 12 kts | 297° |
| 2026-05-07 10:21 | 43.66369 | 7.21541 | 21 ft | 3 kts | 324° |
| 2026-05-07 10:21 | 43.66373 | 7.21537 | 21 ft | 0 kts | 327° |
| 2026-05-07 10:21 | 43.66376 | 7.21535 | 21 ft | 3 kts | 327° |
| 2026-05-07 10:21 | 43.66407 | 7.21534 | 21 ft | 5 kts | 20° |
| 2026-05-07 10:22 | 43.66431 | 7.21553 | 22 ft | 2 kts | 16° |
| 2026-05-07 10:22 | 43.66444 | 7.21536 | 21 ft | 6 kts | 315° |
| 2026-05-07 10:22 | 43.66468 | 7.21504 | 21 ft | 1 kts | 315° |
| 2026-05-07 10:22 | 43.66472 | 7.21498 | 21 ft | 0 kts | 315° |
| 2026-05-07 10:23 | 43.66473 | 7.21497 | 21 ft | 0 kts | 315° |
| 2026-05-07 11:00 | 43.66472 | 7.21497 | 21 ft | 0 kts | 315° |